Othello, WA

2:40 PM PST en Noviembre 28, 2014 (GMT -0800)
N Royal Lake | Change Station
CLOSE
Current Station
Estación meteorológica personal
Location: Othello, WA
Altura: 883 ft
Estaciones meteorológicas cercanas

Alt 883 ft 46.88 °N, 119.37 °W | Updated 4 minutes ago

Parcialmente nublado
Parcialmente nublado
59.7 ° F
Sensación térmica 59.7 ° F
N
23.8
Viento Variable Viento desde SSO

Hoy
Alta -- | Baja -- ° F
--% Posibilidad de precipitaciones
Ayer
Alta -- | Baja -- ° F
Precip. -- pul
7:18 AM 4:12 PM
Creciente, 44% visible
Presión 29.32 pul
Visibilidad 10.0 Millas
Nubes Nubes dispersas 8000 ft
Punto de rocío 45 ° F
Humedad 59%
Precipitaciones 0.00 pul
Espesor de la nieve No disponible.
UV 1 de una escala de 12
Polen .30 de una escala de 12
Calidad del aire No disponible.
Flu Activity No disponible.
METAR KMWH 282152Z 18017G25KT 10SM SCT080 15/07 A2932 RMK AO2 PK WND 18026/2121 SLP928 T01500067

More Conditions Fewer Conditions

Presión 29.32 pul
Visibilidad 10.0 Millas
Nubes Nubes dispersas 8000 ft
Punto de rocío 45 ° F
Humedad 59%
Precipitaciones 0.00 pul
Espesor de la nieve No disponible.
UV 1 de una escala de 12
Polen .30 de una escala de 12
Calidad del aire No disponible.
Flu Activity No disponible.
METAR KMWH 282152Z 18017G25KT 10SM SCT080 15/07 A2932 RMK AO2 PK WND 18026/2121 SLP928 T01500067

More Conditions Fewer Conditions

10-Day Weather Forecast

Almanac

Astronomía

Nov. 28, 2014 Salida Puesta
Hora real
Crepúsculo civil
Crepúsculo náutico
Crepúsculo astronómico
Luna
Horas de luz
Horas de luz
Tomorrow will be .
, % of the Moon is Illuminated

Extremos de hoy

Máximos del estado Bajos del estado

Community

WunderPhotos

Upload Photos

1,774,323 ¡fotos cargadas!

WunderBlogs® & News

Nearby

Calidad del aire

  Calidad del aire Índice AQ Contaminante
Not available.

Grosos de nieve

Estación Profundido Altura

Actividad de terremotos

Ciudad Distance Mag. Tiempo y dato
Magnitud mínima muestra es 2,5.

Temperaturas de aguas costeras

Lugar Temperatura

Estaciones meteorológicas cercanas